sensor_id;sensor_type;location;lat;lon;timestamp;temperature;humidity
58933;DHT22;44716;51.022;6.818;2023-11-19T00:01:53;20.30;57.60
58933;DHT22;44716;51.022;6.818;2023-11-19T00:04:18;20.30;57.50
58933;DHT22;44716;51.022;6.818;2023-11-19T00:06:44;20.30;57.60
58933;DHT22;44716;51.022;6.818;2023-11-19T00:09:09;20.30;57.60
58933;DHT22;44716;51.022;6.818;2023-11-19T00:11:35;20.30;57.60
58933;DHT22;44716;51.022;6.818;2023-11-19T00:14:01;20.30;57.60
58933;DHT22;44716;51.022;6.818;2023-11-19T00:16:27;20.30;57.50
58933;DHT22;44716;51.022;6.818;2023-11-19T00:18:53;20.30;57.40
58933;DHT22;44716;51.022;6.818;2023-11-19T00:21:18;20.30;57.40
58933;DHT22;44716;51.022;6.818;2023-11-19T00:23:44;20.30;57.50
58933;DHT22;44716;51.022;6.818;2023-11-19T00:26:09;20.30;57.40
58933;DHT22;44716;51.022;6.818;2023-11-19T00:28:35;20.30;57.50
58933;DHT22;44716;51.022;6.818;2023-11-19T00:31:04;20.30;57.40
58933;DHT22;44716;51.022;6.818;2023-11-19T00:33:29;20.30;58.10
58933;DHT22;44716;51.022;6.818;2023-11-19T00:35:56;20.30;57.50
58933;DHT22;44716;51.022;6.818;2023-11-19T00:38:22;20.30;57.50
58933;DHT22;44716;51.022;6.818;2023-11-19T00:40:47;20.30;57.50
58933;DHT22;44716;51.022;6.818;2023-11-19T00:43:13;20.30;57.60
58933;DHT22;44716;51.022;6.818;2023-11-19T00:45:38;20.20;57.50
58933;DHT22;44716;51.022;6.818;2023-11-19T00:48:04;20.20;58.20
58933;DHT22;44716;51.022;6.818;2023-11-19T19:17:02;21.70;62.50
58933;DHT22;44716;51.022;6.818;2023-11-19T19:19:29;21.70;60.50
58933;DHT22;44716;51.022;6.818;2023-11-19T19:21:55;21.50;61.20
58933;DHT22;44716;51.022;6.818;2023-11-19T19:24:20;21.50;61.00
58933;DHT22;44716;51.022;6.818;2023-11-19T19:26:46;21.50;61.30
58933;DHT22;44716;51.022;6.818;2023-11-19T19:29:11;21.40;61.30
58933;DHT22;44716;51.022;6.818;2023-11-19T19:31:37;21.50;61.40
58933;DHT22;44716;51.022;6.818;2023-11-19T19:34:02;21.60;61.30
58933;DHT22;44716;51.022;6.818;2023-11-19T19:36:28;21.70;61.00
58933;DHT22;44716;51.022;6.818;2023-11-19T19:38:57;21.90;60.40
58933;DHT22;44716;51.022;6.818;2023-11-19T19:41:22;22.00;60.00
58933;DHT22;44716;51.022;6.818;2023-11-19T19:43:49;22.00;59.60
58933;DHT22;44716;51.022;6.818;2023-11-19T19:46:14;22.10;59.60
58933;DHT22;44716;51.022;6.818;2023-11-19T19:48:40;22.20;59.10
58933;DHT22;44716;51.022;6.818;2023-11-19T19:51:07;22.40;58.70
58933;DHT22;44716;51.022;6.818;2023-11-19T19:53:34;22.50;58.40
58933;DHT22;44716;51.022;6.818;2023-11-19T19:56:00;22.60;58.10
58933;DHT22;44716;51.022;6.818;2023-11-19T19:58:26;22.60;57.90
58933;DHT22;44716;51.022;6.818;2023-11-19T20:00:51;22.60;57.80
58933;DHT22;44716;51.022;6.818;2023-11-19T20:03:17;22.70;57.40
58933;DHT22;44716;51.022;6.818;2023-11-19T20:05:42;22.80;57.30
58933;DHT22;44716;51.022;6.818;2023-11-19T20:08:09;23.00;56.70
58933;DHT22;44716;51.022;6.818;2023-11-19T20:10:35;23.10;56.50
58933;DHT22;44716;51.022;6.818;2023-11-19T20:13:02;23.20;56.00
58933;DHT22;44716;51.022;6.818;2023-11-19T20:15:37;23.30;55.80
58933;DHT22;44716;51.022;6.818;2023-11-19T20:18:03;23.40;55.60
58933;DHT22;44716;51.022;6.818;2023-11-19T20:20:29;23.50;55.40
58933;DHT22;44716;51.022;6.818;2023-11-19T20:22:56;23.60;55.00
58933;DHT22;44716;51.022;6.818;2023-11-19T20:25:21;23.60;54.90
58933;DHT22;44716;51.022;6.818;2023-11-19T20:27:47;23.70;54.60
58933;DHT22;44716;51.022;6.818;2023-11-19T20:30:13;23.70;54.60
58933;DHT22;44716;51.022;6.818;2023-11-19T20:32:39;23.70;54.50
58933;DHT22;44716;51.022;6.818;2023-11-19T20:35:06;23.90;54.50
58933;DHT22;44716;51.022;6.818;2023-11-19T20:37:32;23.90;54.00
58933;DHT22;44716;51.022;6.818;2023-11-19T20:39:58;23.90;53.90
58933;DHT22;44716;51.022;6.818;2023-11-19T20:42:24;23.90;53.90
58933;DHT22;44716;51.022;6.818;2023-11-19T20:44:50;23.90;54.00
58933;DHT22;44716;51.022;6.818;2023-11-19T20:47:16;23.90;53.80
58933;DHT22;44716;51.022;6.818;2023-11-19T20:49:41;24.00;54.00
58933;DHT22;44716;51.022;6.818;2023-11-19T20:52:07;23.90;54.10
58933;DHT22;44716;51.022;6.818;2023-11-19T20:54:33;23.90;54.40
58933;DHT22;44716;51.022;6.818;2023-11-19T20:56:58;23.90;54.10
58933;DHT22;44716;51.022;6.818;2023-11-19T20:59:25;23.80;54.60
58933;DHT22;44716;51.022;6.818;2023-11-19T21:01:50;23.90;54.50
58933;DHT22;44716;51.022;6.818;2023-11-19T21:04:16;23.90;54.50
58933;DHT22;44716;51.022;6.818;2023-11-19T21:06:42;23.70;54.80
58933;DHT22;44716;51.022;6.818;2023-11-19T21:09:09;23.70;54.70
58933;DHT22;44716;51.022;6.818;2023-11-19T21:11:35;23.80;54.70
58933;DHT22;44716;51.022;6.818;2023-11-19T21:14:01;23.70;54.80
58933;DHT22;44716;51.022;6.818;2023-11-19T21:16:26;23.70;55.30
58933;DHT22;44716;51.022;6.818;2023-11-19T21:18:52;23.70;55.50
58933;DHT22;44716;51.022;6.818;2023-11-19T21:21:20;23.80;55.20
58933;DHT22;44716;51.022;6.818;2023-11-19T21:23:47;23.70;55.70
58933;DHT22;44716;51.022;6.818;2023-11-19T21:26:13;23.70;56.10
58933;DHT22;44716;51.022;6.818;2023-11-19T21:28:39;23.70;55.80
58933;DHT22;44716;51.022;6.818;2023-11-19T21:31:05;23.80;55.90
58933;DHT22;44716;51.022;6.818;2023-11-19T21:33:32;23.70;55.80
58933;DHT22;44716;51.022;6.818;2023-11-19T21:35:57;23.60;56.10
58933;DHT22;44716;51.022;6.818;2023-11-19T21:38:23;23.70;56.00
58933;DHT22;44716;51.022;6.818;2023-11-19T21:40:49;23.70;56.50
58933;DHT22;44716;51.022;6.818;2023-11-19T21:43:18;23.60;56.20
58933;DHT22;44716;51.022;6.818;2023-11-19T21:45:46;23.60;56.10
58933;DHT22;44716;51.022;6.818;2023-11-19T21:48:11;23.60;56.20
58933;DHT22;44716;51.022;6.818;2023-11-19T21:50:38;23.60;56.30
58933;DHT22;44716;51.022;6.818;2023-11-19T21:53:04;23.50;56.40
58933;DHT22;44716;51.022;6.818;2023-11-19T21:55:29;23.50;57.30
58933;DHT22;44716;51.022;6.818;2023-11-19T21:57:56;23.50;56.70
58933;DHT22;44716;51.022;6.818;2023-11-19T22:00:22;23.50;56.80
58933;DHT22;44716;51.022;6.818;2023-11-19T22:02:47;23.50;56.70
58933;DHT22;44716;51.022;6.818;2023-11-19T22:05:15;23.50;57.10
58933;DHT22;44716;51.022;6.818;2023-11-19T22:07:46;23.50;57.30
58933;DHT22;44716;51.022;6.818;2023-11-19T22:10:12;23.70;57.00
58933;DHT22;44716;51.022;6.818;2023-11-19T22:12:41;23.70;57.10
58933;DHT22;44716;51.022;6.818;2023-11-19T22:15:07;23.60;57.10
58933;DHT22;44716;51.022;6.818;2023-11-19T22:17:32;23.60;57.20
58933;DHT22;44716;51.022;6.818;2023-11-19T22:19:58;23.70;57.20
58933;DHT22;44716;51.022;6.818;2023-11-19T22:22:24;23.70;57.10
58933;DHT22;44716;51.022;6.818;2023-11-19T22:24:49;23.70;57.00
58933;DHT22;44716;51.022;6.818;2023-11-19T22:27:18;23.60;56.70
58933;DHT22;44716;51.022;6.818;2023-11-19T22:29:46;23.60;56.60
58933;DHT22;44716;51.022;6.818;2023-11-19T22:32:12;23.60;56.60
58933;DHT22;44716;51.022;6.818;2023-11-19T22:34:37;23.50;56.50
58933;DHT22;44716;51.022;6.818;2023-11-19T22:37:03;23.50;56.90
58933;DHT22;44716;51.022;6.818;2023-11-19T22:39:29;23.50;57.00
58933;DHT22;44716;51.022;6.818;2023-11-19T22:41:55;23.60;57.30
58933;DHT22;44716;51.022;6.818;2023-11-19T22:44:20;23.50;56.60
58933;DHT22;44716;51.022;6.818;2023-11-19T22:46:47;23.50;56.50
58933;DHT22;44716;51.022;6.818;2023-11-19T22:49:13;23.60;57.30
58933;DHT22;44716;51.022;6.818;2023-11-19T22:51:38;23.50;57.00
58933;DHT22;44716;51.022;6.818;2023-11-19T22:54:04;23.50;57.00
58933;DHT22;44716;51.022;6.818;2023-11-19T22:56:30;23.40;56.70
58933;DHT22;44716;51.022;6.818;2023-11-19T22:58:55;23.30;56.60
58933;DHT22;44716;51.022;6.818;2023-11-19T23:01:21;23.20;56.80
58933;DHT22;44716;51.022;6.818;2023-11-19T23:03:46;23.20;57.20
58933;DHT22;44716;51.022;6.818;2023-11-19T23:06:12;23.10;57.10
58933;DHT22;44716;51.022;6.818;2023-11-19T23:08:37;23.20;57.10
58933;DHT22;44716;51.022;6.818;2023-11-19T23:11:03;23.10;57.20
58933;DHT22;44716;51.022;6.818;2023-11-19T23:13:29;22.90;57.40
58933;DHT22;44716;51.022;6.818;2023-11-19T23:15:56;22.90;57.60
58933;DHT22;44716;51.022;6.818;2023-11-19T23:18:24;22.90;57.70
58933;DHT22;44716;51.022;6.818;2023-11-19T23:20:49;22.80;57.80
58933;DHT22;44716;51.022;6.818;2023-11-19T23:23:15;22.80;57.90
58933;DHT22;44716;51.022;6.818;2023-11-19T23:25:40;22.80;58.10
58933;DHT22;44716;51.022;6.818;2023-11-19T23:28:06;22.70;58.10
58933;DHT22;44716;51.022;6.818;2023-11-19T23:30:32;22.60;58.30
58933;DHT22;44716;51.022;6.818;2023-11-19T23:32:58;22.60;58.40
58933;DHT22;44716;51.022;6.818;2023-11-19T23:35:23;22.50;58.60
58933;DHT22;44716;51.022;6.818;2023-11-19T23:37:49;22.50;58.60
58933;DHT22;44716;51.022;6.818;2023-11-19T23:40:14;22.50;58.70
58933;DHT22;44716;51.022;6.818;2023-11-19T23:42:40;22.50;58.70
58933;DHT22;44716;51.022;6.818;2023-11-19T23:45:07;22.40;58.80
58933;DHT22;44716;51.022;6.818;2023-11-19T23:47:33;22.40;58.80
58933;DHT22;44716;51.022;6.818;2023-11-19T23:49:58;22.30;58.90
58933;DHT22;44716;51.022;6.818;2023-11-19T23:52:24;22.30;59.20
58933;DHT22;44716;51.022;6.818;2023-11-19T23:54:49;22.20;59.20
58933;DHT22;44716;51.022;6.818;2023-11-19T23:57:15;22.20;59.20
58933;DHT22;44716;51.022;6.818;2023-11-19T23:59:41;22.20;59.30
